createdAt,value
2022-11-15T00:00:49.248Z,7.41
2022-11-15T00:03:20.026Z,7.46
2022-11-15T00:05:46.913Z,7.50
2022-11-15T00:08:13.519Z,7.26
2022-11-15T00:10:40.291Z,7.43
2022-11-15T00:13:07.961Z,7.45
2022-11-15T00:15:41.893Z,7.46
2022-11-15T00:18:14.118Z,7.50
2022-11-15T00:20:40.700Z,7.31
2022-11-15T00:23:08.076Z,7.53
2022-11-15T00:25:34.552Z,7.30
2022-11-15T00:28:01.454Z,7.30
2022-11-15T00:30:28.244Z,7.45
2022-11-15T00:32:54.649Z,7.38
2022-11-15T00:35:21.275Z,7.29
2022-11-15T00:37:48.525Z,7.54
2022-11-15T00:40:15.901Z,7.58
2022-11-15T00:42:42.634Z,7.49
2022-11-15T00:45:10.002Z,7.57
2022-11-15T00:47:36.377Z,7.51
2022-11-15T00:50:02.834Z,7.56
2022-11-15T00:52:29.209Z,7.52
2022-11-15T00:54:55.562Z,7.54
2022-11-15T00:57:21.929Z,7.50
2022-11-15T00:59:48.300Z,7.54
2022-11-15T01:02:14.682Z,7.47
2022-11-15T01:04:41.045Z,7.33
2022-11-15T01:07:07.450Z,7.56
2022-11-15T01:09:33.875Z,7.59
2022-11-15T01:12:00.235Z,7.48
2022-11-15T01:14:26.777Z,7.48
2022-11-15T01:16:53.233Z,7.57
2022-11-15T01:19:19.595Z,7.36
2022-11-15T01:21:45.958Z,7.63
2022-11-15T01:24:13.461Z,7.72
2022-11-15T01:26:39.863Z,7.72
2022-11-15T01:29:06.233Z,7.53
2022-11-15T01:31:32.609Z,7.85
2022-11-15T01:33:59.019Z,7.79
2022-11-15T01:36:25.390Z,7.83
2022-11-15T01:38:56.362Z,7.75
2022-11-15T01:41:26.309Z,8.00
2022-11-15T01:43:55.084Z,8.01
2022-11-15T01:46:31.700Z,7.94
2022-11-15T01:49:01.870Z,7.95
2022-11-15T01:51:31.075Z,7.87
2022-11-15T01:54:03.211Z,7.85
2022-11-15T01:56:31.802Z,7.99
2022-11-15T01:58:59.560Z,8.05
2022-11-15T02:01:26.916Z,8.18
2022-11-15T02:03:58.171Z,8.03
2022-11-15T02:06:24.561Z,7.89
2022-11-15T02:08:51.186Z,7.91
2022-11-15T02:11:19.327Z,8.23
2022-11-15T02:13:45.780Z,8.23
2022-11-15T02:16:45.996Z,8.36
2022-11-15T02:19:34.302Z,8.40
2022-11-15T02:22:12.276Z,8.46
2022-11-15T02:25:10.916Z,8.46
2022-11-15T02:27:43.503Z,8.48
2022-11-15T02:30:16.080Z,8.52
2022-11-15T02:32:56.031Z,8.39
2022-11-15T02:35:44.642Z,8.60
2022-11-15T02:38:34.187Z,8.41
2022-11-15T02:41:08.100Z,8.58
2022-11-15T02:43:59.947Z,8.62
2022-11-15T02:46:54.524Z,8.62
2022-11-15T02:49:20.952Z,8.58
2022-11-15T02:51:49.556Z,8.60
2022-11-15T02:54:20.738Z,8.76
2022-11-15T02:56:47.214Z,8.55
2022-11-15T02:59:32.135Z,8.88
2022-11-15T03:02:14.462Z,8.82
2022-11-15T03:04:54.208Z,8.98
2022-11-15T03:07:38.757Z,8.88
2022-11-15T03:10:33.370Z,8.90
2022-11-15T03:13:04.555Z,8.93
2022-11-15T03:15:33.484Z,8.64
2022-11-15T03:18:13.649Z,8.93
2022-11-15T03:20:40.280Z,8.99
2022-11-15T03:23:09.631Z,9.07
2022-11-15T03:25:38.923Z,9.03
2022-11-15T03:28:06.836Z,9.14
2022-11-15T03:30:34.169Z,9.12
2022-11-15T03:33:01.656Z,9.07
2022-11-15T03:35:31.696Z,8.94
2022-11-15T03:38:16.879Z,9.10
2022-11-15T03:40:48.878Z,9.24
2022-11-15T03:43:36.534Z,9.08
2022-11-15T03:46:07.496Z,9.26
2022-11-15T03:48:41.496Z,9.36
2022-11-15T03:51:07.999Z,9.23
2022-11-15T03:53:34.604Z,9.03
2022-11-15T03:56:01.063Z,9.29
2022-11-15T03:58:27.421Z,9.09
2022-11-15T04:00:53.899Z,9.35
2022-11-15T04:03:20.398Z,9.37
2022-11-15T04:05:46.749Z,9.43
2022-11-15T04:08:13.129Z,9.36
2022-11-15T04:10:40.170Z,9.29
2022-11-15T04:13:06.527Z,9.42
2022-11-15T04:15:33.147Z,9.48
2022-11-15T04:17:59.588Z,9.47
2022-11-15T04:20:47.081Z,9.63
2022-11-15T04:23:38.171Z,9.58
2022-11-15T04:26:11.028Z,9.54
2022-11-15T04:28:57.603Z,9.60
2022-11-15T04:31:24.076Z,9.46
2022-11-15T04:33:50.471Z,9.60
2022-11-15T04:36:35.475Z,9.40
2022-11-15T04:39:01.873Z,9.63
2022-11-15T04:41:28.248Z,9.63
2022-11-15T04:43:54.712Z,9.59
2022-11-15T04:46:21.483Z,9.82
2022-11-15T04:48:47.962Z,9.69
2022-11-15T04:51:14.338Z,9.43
2022-11-15T04:53:40.697Z,9.49
2022-11-15T04:56:07.251Z,9.64
2022-11-15T04:58:33.818Z,9.82
2022-11-15T05:01:10.841Z,9.77
2022-11-15T05:03:55.998Z,9.84
2022-11-15T05:06:22.375Z,9.75
2022-11-15T05:08:48.940Z,9.90
2022-11-15T05:11:15.320Z,9.96
2022-11-15T05:13:41.717Z,9.90
2022-11-15T05:16:08.084Z,10.02
2022-11-15T05:18:34.568Z,9.91
2022-11-15T05:21:09.378Z,9.91
2022-11-15T05:23:35.776Z,9.97
2022-11-15T05:26:09.147Z,10.07
2022-11-15T05:28:37.312Z,9.97
2022-11-15T05:31:04.356Z,10.09
2022-11-15T05:33:31.883Z,9.71
2022-11-15T05:36:05.414Z,10.14
2022-11-15T05:38:32.247Z,9.86
2022-11-15T05:40:58.655Z,10.17
2022-11-15T05:43:25.131Z,10.17
2022-11-15T05:45:51.571Z,9.76
2022-11-15T05:48:18.094Z,10.15
2022-11-15T05:50:47.334Z,10.03
2022-11-15T05:53:15.878Z,10.04
2022-11-15T05:55:42.613Z,10.24
2022-11-15T05:58:09.128Z,10.22
2022-11-15T06:00:35.579Z,10.24
2022-11-15T06:03:01.937Z,10.10
2022-11-15T06:05:28.464Z,10.24
2022-11-15T06:07:58.689Z,10.42
2022-11-15T06:10:25.128Z,10.44
2022-11-15T06:13:02.412Z,10.36
2022-11-15T06:15:28.794Z,10.35
2022-11-15T06:17:58.516Z,10.40
2022-11-15T06:20:28.951Z,10.34
2022-11-15T06:23:03.660Z,10.29
2022-11-15T06:25:31.008Z,10.22
2022-11-15T06:27:58.947Z,10.27
2022-11-15T06:30:26.349Z,10.55
2022-11-15T06:32:53.073Z,10.43
2022-11-15T06:35:19.506Z,10.45
2022-11-15T06:37:45.937Z,10.46
2022-11-15T06:40:12.543Z,10.62
2022-11-15T06:42:38.937Z,10.53
2022-11-15T06:45:05.874Z,10.56
2022-11-15T06:47:32.242Z,10.48
2022-11-15T06:49:58.690Z,10.55
2022-11-15T06:52:25.160Z,10.69
2022-11-15T06:54:51.561Z,10.58
2022-11-15T06:57:17.918Z,10.63
2022-11-15T06:59:48.560Z,10.36
2022-11-15T07:02:14.972Z,10.46
2022-11-15T07:04:41.376Z,10.30
2022-11-15T07:07:07.966Z,10.36
2022-11-15T07:09:34.370Z,10.60
2022-11-15T07:12:06.239Z,10.58
2022-11-15T07:14:33.982Z,10.55
2022-11-15T07:17:00.355Z,10.28
2022-11-15T07:19:27.003Z,10.56
2022-11-15T07:21:53.350Z,10.59
2022-11-15T07:24:19.709Z,10.69
2022-11-15T07:26:46.128Z,10.44
2022-11-15T07:29:12.575Z,10.76
2022-11-15T07:31:39.835Z,10.57
2022-11-15T07:34:06.261Z,10.32
2022-11-15T07:36:32.658Z,10.38
2022-11-15T07:38:59.015Z,10.40
2022-11-15T07:41:25.409Z,10.82
2022-11-15T07:43:54.880Z,10.74
2022-11-15T07:46:21.285Z,10.52
2022-11-15T07:48:47.710Z,10.62
2022-11-15T07:51:17.996Z,10.52
2022-11-15T07:53:44.646Z,10.89
2022-11-15T07:56:11.288Z,10.81
2022-11-15T07:58:37.671Z,10.86
2022-11-15T08:01:09.893Z,10.67
2022-11-15T08:03:37.197Z,10.99
2022-11-15T08:06:03.979Z,10.94
2022-11-15T08:08:30.353Z,10.88
2022-11-15T08:10:58.831Z,10.79
2022-11-15T08:13:25.372Z,11.00
2022-11-15T08:15:56.394Z,10.76
2022-11-15T08:18:24.214Z,11.00
2022-11-15T08:20:50.657Z,10.91
2022-11-15T08:23:17.061Z,11.10
2022-11-15T08:25:43.815Z,10.81
2022-11-15T08:28:11.158Z,11.21
2022-11-15T08:30:43.231Z,10.89
2022-11-15T08:33:14.216Z,11.27
2022-11-15T08:35:42.043Z,11.05
2022-11-15T08:38:08.452Z,10.97
2022-11-15T08:40:34.818Z,10.86
2022-11-15T08:43:03.350Z,11.20
2022-11-15T08:45:30.712Z,11.21
2022-11-15T08:47:57.228Z,11.30
2022-11-15T08:50:23.710Z,11.02
2022-11-15T08:52:50.199Z,11.27
2022-11-15T08:55:17.723Z,11.21
2022-11-15T08:57:44.367Z,11.25
2022-11-15T09:00:12.354Z,11.29
2022-11-15T09:02:40.053Z,11.43
2022-11-15T09:05:07.144Z,11.32
2022-11-15T09:07:33.597Z,11.47
2022-11-15T09:10:00.099Z,11.34
2022-11-15T09:12:26.801Z,11.53
2022-11-15T09:14:56.117Z,11.51
2022-11-15T09:17:25.370Z,11.64
2022-11-15T09:19:52.144Z,11.57
2022-11-15T09:22:18.829Z,11.43
2022-11-15T09:24:45.272Z,11.42
2022-11-15T09:27:14.153Z,11.60
2022-11-15T09:29:40.770Z,11.38
2022-11-15T09:32:07.176Z,11.45
2022-11-15T09:34:47.871Z,11.37
2022-11-15T09:37:14.364Z,11.35
2022-11-15T09:39:40.830Z,11.43
2022-11-15T09:42:30.656Z,11.82
2022-11-15T09:45:06.187Z,11.96
2022-11-15T09:47:56.368Z,12.19
2022-11-15T09:50:35.517Z,11.72
2022-11-15T09:53:02.370Z,12.44
2022-11-15T09:55:38.172Z,12.29
2022-11-15T09:58:30.381Z,12.13
2022-11-15T10:01:02.256Z,12.45
2022-11-15T10:03:34.999Z,12.34
2022-11-15T10:06:03.801Z,12.70
2022-11-15T10:08:55.627Z,13.07
2022-11-15T10:11:41.451Z,12.94
2022-11-15T10:14:15.247Z,12.96
2022-11-15T10:17:00.794Z,12.95
2022-11-15T10:19:58.529Z,12.83
2022-11-15T10:22:44.924Z,13.07
2022-11-15T10:25:14.034Z,13.16
2022-11-15T10:27:42.116Z,12.79
2022-11-15T10:30:14.380Z,12.87
2022-11-15T10:32:42.773Z,13.18
2022-11-15T10:35:30.068Z,12.98
2022-11-15T10:38:07.763Z,12.98
2022-11-15T10:40:34.412Z,13.00
2022-11-15T10:43:09.973Z,13.45
2022-11-15T10:45:44.529Z,13.44
2022-11-15T10:48:20.148Z,13.57
2022-11-15T10:51:05.351Z,12.99
2022-11-15T10:53:45.066Z,13.13
2022-11-15T10:56:22.769Z,13.33
2022-11-15T10:58:55.264Z,13.62
2022-11-15T11:01:31.585Z,13.02
2022-11-15T11:04:05.486Z,13.68
2022-11-15T11:06:47.425Z,13.52
2022-11-15T11:09:43.448Z,13.62
2022-11-15T11:12:13.192Z,13.07
2022-11-15T11:14:48.452Z,13.25
2022-11-15T11:17:27.376Z,13.30
2022-11-15T11:20:08.353Z,12.70
2022-11-15T11:22:57.838Z,13.45
2022-11-15T11:25:34.398Z,13.38
2022-11-15T11:28:19.811Z,13.29
2022-11-15T11:31:11.104Z,13.02
2022-11-15T11:33:45.878Z,12.98
2022-11-15T11:36:15.430Z,13.07
2022-11-15T11:38:57.256Z,12.90
2022-11-15T11:41:47.425Z,13.09
2022-11-15T11:44:28.964Z,13.21
2022-11-15T11:46:58.806Z,12.82
2022-11-15T11:49:31.191Z,12.86
2022-11-15T11:52:14.757Z,13.06
2022-11-15T11:54:51.121Z,13.11
2022-11-15T11:57:50.907Z,12.98
2022-11-15T12:00:21.440Z,13.02
2022-11-15T12:02:59.909Z,12.88
2022-11-15T12:05:52.591Z,12.97
2022-11-15T12:08:51.250Z,12.92
2022-11-15T12:11:42.566Z,13.27
2022-11-15T12:14:32.640Z,13.31
2022-11-15T12:16:59.954Z,13.10
2022-11-15T12:19:27.125Z,12.77
2022-11-15T12:22:13.486Z,13.13
2022-11-15T12:24:52.328Z,12.78
2022-11-15T12:27:27.090Z,12.97
2022-11-15T12:30:03.932Z,13.35
2022-11-15T12:32:39.245Z,13.27
2022-11-15T12:35:23.163Z,13.33
2022-11-15T12:37:56.227Z,13.15
2022-11-15T12:40:26.546Z,13.37
2022-11-15T12:43:00.356Z,13.45
2022-11-15T12:45:34.032Z,13.47
2022-11-15T12:48:18.720Z,13.31
2022-11-15T12:50:51.110Z,13.38
2022-11-15T12:53:23.634Z,13.48
2022-11-15T12:56:05.327Z,13.46
2022-11-15T13:01:34.230Z,13.56
2022-11-15T13:04:14.381Z,13.41
2022-11-15T13:06:47.412Z,13.43
2022-11-15T13:09:30.497Z,13.40
2022-11-15T13:11:59.343Z,13.42
2022-11-15T13:14:37.891Z,13.52
2022-11-15T13:17:19.947Z,13.37
2022-11-15T13:20:09.154Z,13.27
2022-11-15T13:23:10.789Z,13.39
2022-11-15T13:25:37.214Z,13.49
2022-11-15T13:28:10.719Z,13.40
2022-11-15T13:30:37.879Z,13.33
2022-11-15T13:33:14.951Z,13.19
2022-11-15T13:35:42.289Z,13.14
2022-11-15T13:38:21.633Z,13.00
2022-11-15T13:40:48.015Z,12.73
2022-11-15T13:43:29.146Z,13.12
2022-11-15T13:46:15.192Z,12.86
2022-11-15T13:48:42.614Z,13.07
2022-11-15T13:51:17.261Z,12.77
2022-11-15T13:53:48.995Z,12.81
2022-11-15T13:56:17.914Z,12.69
2022-11-15T13:58:44.344Z,12.66
2022-11-15T14:01:16.638Z,12.58
2022-11-15T14:03:53.051Z,12.52
2022-11-15T14:06:25.020Z,12.39
2022-11-15T14:09:11.680Z,12.70
2022-11-15T14:11:38.941Z,12.74
2022-11-15T14:14:14.261Z,12.75
2022-11-15T14:16:43.201Z,12.51
2022-11-15T14:19:32.936Z,12.55
2022-11-15T14:22:29.445Z,12.42
2022-11-15T14:25:19.687Z,12.37
2022-11-15T14:28:08.775Z,12.33
2022-11-15T14:30:35.552Z,12.28
2022-11-15T14:33:02.301Z,12.36
2022-11-15T14:35:28.727Z,12.01
2022-11-15T14:37:55.089Z,12.21
2022-11-15T14:40:22.615Z,12.23
2022-11-15T14:42:50.286Z,12.27
2022-11-15T14:45:21.746Z,12.05
2022-11-15T14:47:48.602Z,12.29
2022-11-15T14:50:20.411Z,12.22
2022-11-15T14:52:47.522Z,12.16
2022-11-15T14:55:22.245Z,12.12
2022-11-15T14:57:48.656Z,11.97
2022-11-15T15:00:15.530Z,12.19
2022-11-15T15:02:43.260Z,12.08
2022-11-15T15:05:22.847Z,12.08
2022-11-15T15:07:49.448Z,12.10
2022-11-15T15:10:39.112Z,12.11
2022-11-15T15:13:04.063Z,11.98
2022-11-15T15:15:36.593Z,12.00
2022-11-15T15:18:05.340Z,11.86
2022-11-15T15:20:35.953Z,12.12
2022-11-15T15:23:02.347Z,11.82
2022-11-15T15:25:33.876Z,11.80
2022-11-15T15:28:01.266Z,12.03
2022-11-15T15:30:29.640Z,12.13
2022-11-15T15:32:57.578Z,11.62
2022-11-15T15:35:33.357Z,11.55
2022-11-15T15:38:04.375Z,11.72
2022-11-15T15:46:33.201Z,11.41
2022-11-15T15:49:07.710Z,11.76
2022-11-15T15:51:38.883Z,11.36
2022-11-15T15:54:05.885Z,11.75
2022-11-15T15:56:32.372Z,11.74
2022-11-15T15:59:08.053Z,11.73
2022-11-15T16:01:42.242Z,11.51
2022-11-15T16:04:10.316Z,11.68
2022-11-15T16:06:46.746Z,11.41
2022-11-15T16:09:40.333Z,11.73
2022-11-15T16:12:11.517Z,11.58
2022-11-15T16:15:13.038Z,11.42
2022-11-15T16:18:19.245Z,11.40
2022-11-15T16:20:52.146Z,11.87
2022-11-15T16:23:49.547Z,11.50
2022-11-15T16:26:22.330Z,11.40
2022-11-15T16:29:03.007Z,11.77
2022-11-15T16:31:37.302Z,11.78
2022-11-15T16:34:07.291Z,11.56
2022-11-15T16:36:35.200Z,12.09
2022-11-15T16:39:20.728Z,11.91
2022-11-15T16:41:47.836Z,11.85
2022-11-15T16:44:14.675Z,12.06
2022-11-15T16:46:44.411Z,12.20
2022-11-15T16:49:15.188Z,12.20
2022-11-15T16:51:42.341Z,12.17
2022-11-15T16:54:08.784Z,12.19
2022-11-15T16:56:35.151Z,12.12
2022-11-15T16:59:01.765Z,12.22
2022-11-15T17:01:30.200Z,12.12
2022-11-15T17:03:56.899Z,12.18
2022-11-15T17:06:23.932Z,12.19
2022-11-15T17:08:50.297Z,12.06
2022-11-15T17:11:19.723Z,12.10
2022-11-15T17:13:46.700Z,12.01
2022-11-15T17:16:15.075Z,11.98
2022-11-15T17:18:42.370Z,12.10
2022-11-15T17:21:13.197Z,12.08
2022-11-15T17:23:39.596Z,11.81
2022-11-15T17:28:56.995Z,11.90
2022-11-15T17:31:23.430Z,11.70
2022-11-15T17:33:49.777Z,11.71
2022-11-15T17:36:16.165Z,11.65
2022-11-15T17:38:42.679Z,11.62
2022-11-15T17:41:16.375Z,11.61
2022-11-15T17:43:42.770Z,11.58
2022-11-15T17:46:12.407Z,11.72
2022-11-15T17:48:39.057Z,11.51
2022-11-15T17:51:07.388Z,11.48
2022-11-15T17:53:39.600Z,11.61
2022-11-15T17:56:17.179Z,11.43
2022-11-15T17:58:54.780Z,11.30
2022-11-15T18:01:22.166Z,11.53
2022-11-15T18:03:48.872Z,11.42
2022-11-15T18:06:16.195Z,11.45
2022-11-15T18:08:43.893Z,11.36
2022-11-15T18:11:13.905Z,11.31
2022-11-15T18:13:42.271Z,11.28
2022-11-15T18:16:14.673Z,11.12
2022-11-15T18:18:41.363Z,11.27
2022-11-15T18:21:13.881Z,11.19
2022-11-15T18:23:41.562Z,11.11
2022-11-15T18:26:09.723Z,11.24
2022-11-15T18:28:38.423Z,11.20
2022-11-15T18:31:13.486Z,10.91
2022-11-15T18:33:39.858Z,11.15
2022-11-15T18:36:08.267Z,11.20
2022-11-15T18:38:34.969Z,10.88
2022-11-15T18:41:11.653Z,11.07
2022-11-15T18:43:39.373Z,11.18
2022-11-15T18:46:10.750Z,11.14
2022-11-15T18:48:39.664Z,11.22
2022-11-15T18:51:11.539Z,11.18
2022-11-15T18:53:38.623Z,11.13
2022-11-15T18:56:16.118Z,11.04
2022-11-15T18:59:05.002Z,11.12
2022-11-15T19:01:36.824Z,11.18
2022-11-15T19:04:09.089Z,11.06
2022-11-15T19:06:47.048Z,11.06
2022-11-15T19:09:15.979Z,11.18
2022-11-15T19:11:43.629Z,11.18
2022-11-15T19:14:12.044Z,11.19
2022-11-15T19:16:40.377Z,11.25
2022-11-15T19:19:09.989Z,11.08
2022-11-15T19:21:36.356Z,11.17
2022-11-15T19:24:02.900Z,11.21
2022-11-15T19:26:29.491Z,11.27
2022-11-15T19:29:01.062Z,11.24
2022-11-15T19:31:28.802Z,11.31
2022-11-15T19:33:55.731Z,11.31
2022-11-15T19:36:26.728Z,11.28
2022-11-15T19:38:53.953Z,11.05
2022-11-15T19:41:22.501Z,11.11
2022-11-15T19:43:50.669Z,11.24
2022-11-15T19:46:18.234Z,11.35
2022-11-15T19:48:44.586Z,11.06
2022-11-15T19:51:22.035Z,11.27
2022-11-15T19:53:49.703Z,11.34
2022-11-15T19:56:17.654Z,11.42
2022-11-15T19:58:44.409Z,11.39
2022-11-15T20:01:20.984Z,11.34
2022-11-15T20:03:48.323Z,11.33
2022-11-15T20:06:16.929Z,11.27
2022-11-15T20:08:44.247Z,11.43
2022-11-15T20:11:11.209Z,11.32
2022-11-15T20:13:37.723Z,11.32
2022-11-15T20:16:04.400Z,11.34
2022-11-15T20:18:31.295Z,11.34
2022-11-15T20:20:59.024Z,11.26
2022-11-15T20:23:28.712Z,11.48
2022-11-15T20:25:55.471Z,11.48
2022-11-15T20:28:23.890Z,11.41
2022-11-15T20:30:55.659Z,11.50
2022-11-15T20:33:22.549Z,11.40
2022-11-15T20:35:49.439Z,11.35
2022-11-15T20:38:16.276Z,11.44
2022-11-15T20:40:45.168Z,11.56
2022-11-15T20:43:13.549Z,11.59
2022-11-15T20:45:40.410Z,11.40
2022-11-15T20:48:06.879Z,11.49
2022-11-15T20:50:42.757Z,11.36
2022-11-15T20:53:11.283Z,11.56
2022-11-15T20:55:44.929Z,11.45
2022-11-15T20:58:11.569Z,11.57
2022-11-15T21:00:38.236Z,11.62
2022-11-15T21:03:08.569Z,11.68
2022-11-15T21:05:37.765Z,11.44
2022-11-15T21:08:04.204Z,11.68
2022-11-15T21:10:49.194Z,11.56
2022-11-15T21:13:15.613Z,11.56
2022-11-15T21:15:42.014Z,11.55
2022-11-15T21:18:08.394Z,11.61
2022-11-15T21:20:34.768Z,11.61
2022-11-15T21:23:01.205Z,11.66
2022-11-15T21:25:27.737Z,11.61
2022-11-15T21:27:54.096Z,11.66
2022-11-15T21:30:20.591Z,11.67
2022-11-15T21:32:46.963Z,11.71
2022-11-15T21:35:14.220Z,11.79
2022-11-15T21:37:40.852Z,11.78
2022-11-15T21:40:08.270Z,11.79
2022-11-15T21:42:34.632Z,11.76
2022-11-15T21:45:01.014Z,11.65
2022-11-15T21:47:27.367Z,11.64
2022-11-15T21:49:53.730Z,11.63
2022-11-15T21:52:20.093Z,11.83
2022-11-15T21:54:46.536Z,11.84
2022-11-15T21:57:12.939Z,11.74
2022-11-15T21:59:59.323Z,11.78
2022-11-15T22:02:25.872Z,11.79
2022-11-15T22:04:52.248Z,11.82
2022-11-15T22:07:18.878Z,11.83
2022-11-15T22:09:45.263Z,11.85
2022-11-15T22:12:11.652Z,11.62
2022-11-15T22:14:38.078Z,11.86
2022-11-15T22:17:04.441Z,11.87
2022-11-15T22:19:30.857Z,11.91
2022-11-15T22:21:57.278Z,11.93
2022-11-15T22:24:23.895Z,11.94
2022-11-15T22:26:50.820Z,11.98
2022-11-15T22:29:17.224Z,11.87
2022-11-15T22:31:43.615Z,11.88
2022-11-15T22:34:10.097Z,11.79
2022-11-15T22:36:58.407Z,11.75
2022-11-15T22:39:22.826Z,11.90
2022-11-15T22:41:49.230Z,11.82
2022-11-15T22:44:15.683Z,11.82
2022-11-15T22:46:42.048Z,11.93
2022-11-15T22:49:09.159Z,11.96
2022-11-15T22:51:35.663Z,11.98
2022-11-15T22:54:02.320Z,12.07
2022-11-15T22:56:28.787Z,11.85
2022-11-15T22:58:55.178Z,11.81
2022-11-15T23:01:21.985Z,12.01
2022-11-15T23:03:48.634Z,11.85
2022-11-15T23:06:15.122Z,11.87
2022-11-15T23:08:41.707Z,11.88
2022-11-15T23:11:29.168Z,12.01
2022-11-15T23:13:56.339Z,12.00
2022-11-15T23:16:22.981Z,11.94
2022-11-15T23:18:51.194Z,11.82
2022-11-15T23:21:52.697Z,12.04
2022-11-15T23:24:19.892Z,12.01
2022-11-15T23:26:47.774Z,11.90
2022-11-15T23:29:16.548Z,11.87
2022-11-15T23:32:02.892Z,11.84
2022-11-15T23:34:30.989Z,11.92
2022-11-15T23:36:57.534Z,12.06
2022-11-15T23:39:23.902Z,12.03
2022-11-15T23:41:50.256Z,12.09
2022-11-15T23:44:16.647Z,11.77
2022-11-15T23:46:43.116Z,12.01
2022-11-15T23:49:09.732Z,11.93
2022-11-15T23:51:36.476Z,11.97
2022-11-15T23:54:02.884Z,11.88
2022-11-15T23:56:29.309Z,11.86
2022-11-15T23:58:55.676Z,11.94
